createdAt,value
2023-05-12T00:00:36.757Z,37.16
2023-05-12T00:01:36.786Z,37.13
2023-05-12T00:02:36.883Z,37.11
2023-05-12T00:03:37.086Z,37.08
2023-05-12T00:04:36.942Z,37.08
2023-05-12T00:05:36.952Z,37.12
2023-05-12T00:06:36.979Z,37.15
2023-05-12T00:07:37.004Z,37.13
2023-05-12T00:08:37.065Z,37.10
2023-05-12T00:09:37.117Z,37.08
2023-05-12T00:10:37.179Z,37.10
2023-05-12T00:11:37.260Z,37.13
2023-05-12T00:12:37.297Z,37.11
2023-05-12T00:13:37.351Z,37.08
2023-05-12T00:14:37.376Z,37.08
2023-05-12T00:15:37.430Z,37.10
2023-05-12T00:16:37.610Z,37.09
2023-05-12T00:17:37.653Z,37.11
2023-05-12T00:18:37.719Z,37.10
2023-05-12T00:19:37.622Z,37.11
2023-05-12T00:20:37.666Z,37.09
2023-05-12T00:21:37.701Z,37.12
2023-05-12T00:22:37.768Z,37.08
2023-05-12T00:23:37.819Z,37.09
2023-05-12T00:24:37.849Z,37.11
2023-05-12T00:25:37.926Z,37.10
2023-05-12T00:26:37.945Z,37.08
2023-05-12T00:27:38.009Z,37.04
2023-05-12T00:28:38.027Z,37.07
2023-05-12T00:29:38.109Z,37.07
2023-05-12T00:30:38.141Z,37.02
2023-05-12T00:31:38.223Z,37.02
2023-05-12T00:32:38.299Z,37.04
2023-05-12T00:33:38.330Z,37.03
2023-05-12T00:34:38.385Z,37.11
2023-05-12T00:35:38.464Z,37.04
2023-05-12T00:36:38.498Z,37.03
2023-05-12T00:37:38.591Z,37.02
2023-05-12T00:38:38.625Z,37.06
2023-05-12T00:39:38.694Z,37.04
2023-05-12T00:40:38.768Z,37.04
2023-05-12T00:41:38.793Z,37.07
2023-05-12T00:42:38.839Z,37.04
2023-05-12T00:43:38.890Z,37.04
2023-05-12T00:44:38.942Z,37.04
2023-05-12T00:45:39.039Z,37.02
2023-05-12T00:46:39.052Z,37.01
2023-05-12T00:47:39.142Z,37.07
2023-05-12T00:48:39.175Z,37.03
2023-05-12T00:49:39.243Z,37.04
2023-05-12T00:50:39.314Z,37.00
2023-05-12T00:51:39.368Z,37.04
2023-05-12T00:52:39.437Z,37.01
2023-05-12T00:53:49.304Z,37.03
2023-05-12T00:54:40.497Z,37.03
2023-05-12T00:55:39.525Z,37.00
2023-05-12T00:56:39.589Z,37.00
2023-05-12T00:57:39.498Z,37.04
2023-05-12T00:58:39.460Z,37.00
2023-05-12T00:59:39.495Z,37.03
2023-05-12T01:00:39.466Z,37.00
2023-05-12T01:01:39.544Z,36.99
2023-05-12T01:02:39.594Z,37.03
2023-05-12T01:03:39.546Z,36.99
2023-05-12T01:04:39.555Z,36.96
2023-05-12T01:05:39.657Z,36.99
2023-05-12T01:06:39.626Z,36.99
2023-05-12T01:07:39.680Z,36.99
2023-05-12T01:08:39.729Z,36.98
2023-05-12T01:09:39.783Z,36.97
2023-05-12T01:10:39.857Z,36.99
2023-05-12T01:11:39.866Z,36.98
2023-05-12T01:12:39.925Z,36.99
2023-05-12T01:13:39.975Z,36.95
2023-05-12T01:14:39.999Z,36.96
2023-05-12T01:15:40.078Z,36.97
2023-05-12T01:16:40.144Z,36.95
2023-05-12T01:17:40.324Z,36.96
2023-05-12T01:18:40.366Z,36.92
2023-05-12T01:19:40.313Z,36.95
2023-05-12T01:20:40.383Z,36.95
2023-05-12T01:21:40.412Z,36.95
2023-05-12T01:22:40.465Z,36.91
2023-05-12T01:23:40.506Z,36.96
2023-05-12T01:24:40.571Z,36.94
2023-05-12T01:25:40.646Z,36.91
2023-05-12T01:26:40.660Z,36.92
2023-05-12T01:27:40.679Z,36.95
2023-05-12T01:28:40.701Z,36.91
2023-05-12T01:29:40.737Z,36.91
2023-05-12T01:30:40.817Z,36.95
2023-05-12T01:31:41.083Z,36.92
2023-05-12T01:32:40.945Z,36.92
2023-05-12T01:33:40.956Z,36.95
2023-05-12T01:34:41.020Z,36.92
2023-05-12T01:35:41.086Z,36.91
2023-05-12T01:36:41.202Z,36.93
2023-05-12T01:37:41.163Z,36.92
2023-05-12T01:38:41.197Z,36.90
2023-05-12T01:39:41.213Z,36.93
2023-05-12T01:40:41.269Z,36.90
2023-05-12T01:41:41.340Z,36.88
2023-05-12T01:42:41.376Z,36.91
2023-05-12T01:43:41.406Z,36.88
2023-05-12T01:44:41.406Z,36.92
2023-05-12T01:45:41.469Z,36.91
2023-05-12T01:46:41.601Z,36.88
2023-05-12T01:47:41.569Z,36.92
2023-05-12T01:48:41.609Z,36.91
2023-05-12T01:49:41.640Z,36.93
2023-05-12T01:50:41.657Z,36.91
2023-05-12T01:51:41.733Z,36.91
2023-05-12T01:52:41.765Z,36.87
2023-05-12T01:53:41.824Z,36.90
2023-05-12T01:54:41.856Z,36.87
2023-05-12T01:55:41.905Z,36.90
2023-05-12T01:56:41.930Z,36.90
2023-05-12T01:57:41.974Z,36.87
2023-05-12T01:58:42.028Z,36.85
2023-05-12T01:59:42.028Z,36.88
2023-05-12T02:00:42.084Z,36.88
2023-05-12T02:01:42.178Z,36.84
2023-05-12T02:02:43.206Z,36.90
2023-05-12T02:03:42.190Z,36.85
2023-05-12T02:04:42.151Z,36.88
2023-05-12T02:05:42.151Z,36.85
2023-05-12T02:06:42.201Z,36.85
2023-05-12T02:07:42.224Z,36.85
2023-05-12T02:08:42.299Z,36.84
2023-05-12T02:09:42.319Z,36.85
2023-05-12T02:10:42.351Z,36.85
2023-05-12T02:11:42.432Z,36.84
2023-05-12T02:12:42.435Z,36.84
2023-05-12T02:13:42.460Z,36.84
2023-05-12T02:14:42.518Z,36.84
2023-05-12T02:15:42.600Z,36.85
2023-05-12T02:16:42.794Z,36.83
2023-05-12T02:17:42.687Z,36.84
2023-05-12T02:18:42.675Z,36.81
2023-05-12T02:19:42.620Z,36.83
2023-05-12T02:20:42.623Z,36.81
2023-05-12T02:21:42.677Z,36.85
2023-05-12T02:22:42.628Z,36.83
2023-05-12T02:23:42.641Z,36.83
2023-05-12T02:24:42.654Z,36.84
2023-05-12T02:25:42.638Z,36.81
2023-05-12T02:26:42.656Z,36.83
2023-05-12T02:27:42.660Z,36.81
2023-05-12T02:28:42.668Z,36.81
2023-05-12T02:29:42.662Z,36.80
2023-05-12T02:30:42.702Z,36.83
2023-05-12T02:31:42.738Z,36.78
2023-05-12T02:32:42.816Z,36.79
2023-05-12T02:33:42.785Z,36.84
2023-05-12T02:34:42.786Z,36.81
2023-05-12T02:35:42.816Z,36.78
2023-05-12T02:36:42.898Z,36.79
2023-05-12T02:37:42.868Z,36.83
2023-05-12T02:38:42.898Z,36.81
2023-05-12T02:39:42.910Z,36.80
2023-05-12T02:40:42.914Z,36.79
2023-05-12T02:41:42.927Z,36.81
2023-05-12T02:42:42.979Z,36.81
2023-05-12T02:43:42.995Z,36.79
2023-05-12T02:44:43.035Z,36.78
2023-05-12T02:45:43.060Z,36.80
2023-05-12T02:46:43.059Z,36.78
2023-05-12T02:47:43.108Z,36.76
2023-05-12T02:48:43.117Z,36.77
2023-05-12T02:49:43.185Z,36.81
2023-05-12T02:50:43.205Z,36.79
2023-05-12T02:51:43.156Z,36.78
2023-05-12T02:52:43.182Z,36.80
2023-05-12T02:53:43.193Z,36.80
2023-05-12T02:54:43.229Z,36.74
2023-05-12T02:55:43.259Z,36.76
2023-05-12T02:56:43.257Z,36.79
2023-05-12T02:57:43.282Z,36.82
2023-05-12T02:58:43.289Z,36.80
2023-05-12T02:59:43.292Z,36.75
2023-05-12T03:00:43.295Z,36.78
2023-05-12T03:01:43.388Z,36.74
2023-05-12T03:02:43.438Z,36.79
2023-05-12T03:03:43.494Z,36.82
2023-05-12T03:04:43.340Z,36.80
2023-05-12T03:05:43.332Z,36.74
2023-05-12T03:06:43.374Z,36.75
2023-05-12T03:07:43.351Z,36.77
2023-05-12T03:08:43.340Z,36.72
2023-05-12T03:09:43.351Z,36.79
2023-05-12T03:10:43.353Z,36.74
2023-05-12T03:11:43.346Z,36.70
2023-05-12T03:12:43.358Z,36.74
2023-05-12T03:13:43.322Z,36.74
2023-05-12T03:14:43.327Z,36.76
2023-05-12T03:15:43.317Z,36.75
2023-05-12T03:16:43.369Z,36.80
2023-05-12T03:17:43.389Z,36.71
2023-05-12T03:18:43.356Z,36.76
2023-05-12T03:19:43.335Z,36.70
2023-05-12T03:20:43.349Z,36.72
2023-05-12T03:21:43.366Z,36.76
2023-05-12T03:22:43.344Z,36.74
2023-05-12T03:23:43.336Z,36.72
2023-05-12T03:24:43.330Z,36.73
2023-05-12T03:25:43.297Z,36.73
2023-05-12T03:26:43.308Z,36.73
2023-05-12T03:27:43.308Z,36.70
2023-05-12T03:28:43.347Z,36.66
2023-05-12T03:29:43.297Z,36.70
2023-05-12T03:30:43.304Z,36.68
2023-05-12T03:31:43.388Z,36.71
2023-05-12T03:32:43.335Z,36.72
2023-05-12T03:33:43.324Z,36.68
2023-05-12T03:34:43.309Z,36.70
2023-05-12T03:35:43.307Z,36.67
2023-05-12T03:36:43.307Z,36.74
2023-05-12T03:37:43.314Z,36.72
2023-05-12T03:38:43.320Z,36.73
2023-05-12T03:39:43.321Z,36.68
2023-05-12T03:40:43.305Z,36.67
2023-05-12T03:41:43.310Z,36.69
2023-05-12T03:42:43.295Z,36.67
2023-05-12T03:43:43.289Z,36.67
2023-05-12T03:44:43.298Z,36.71
2023-05-12T03:45:43.327Z,36.71
2023-05-12T03:46:43.334Z,36.67
2023-05-12T03:47:43.350Z,36.67
2023-05-12T03:48:43.310Z,36.67
2023-05-12T03:49:43.292Z,36.67
2023-05-12T03:50:43.308Z,36.72
2023-05-12T03:51:43.273Z,36.69
2023-05-12T03:52:43.259Z,36.64
2023-05-12T03:53:43.264Z,36.64
2023-05-12T03:54:43.253Z,36.71
2023-05-12T03:55:43.287Z,36.69
2023-05-12T03:56:43.271Z,36.68
2023-05-12T03:57:43.259Z,36.70
2023-05-12T03:58:43.243Z,36.68
2023-05-12T03:59:43.243Z,36.64
2023-05-12T04:00:44.198Z,36.64
2023-05-12T04:01:43.288Z,36.62
2023-05-12T04:02:43.364Z,36.65
2023-05-12T04:03:43.339Z,36.63
2023-05-12T04:04:43.249Z,36.67
2023-05-12T04:05:43.242Z,36.69
2023-05-12T04:06:43.251Z,36.68
2023-05-12T04:07:43.244Z,36.65
2023-05-12T04:08:43.242Z,36.67
2023-05-12T04:09:43.242Z,36.61
2023-05-12T04:10:43.224Z,36.63
2023-05-12T04:11:43.228Z,36.65
2023-05-12T04:12:43.226Z,36.64
2023-05-12T04:13:43.212Z,36.61
2023-05-12T04:14:43.626Z,36.60
2023-05-12T04:15:43.234Z,36.62
2023-05-12T04:16:43.255Z,36.60
2023-05-12T04:17:43.294Z,36.63
2023-05-12T04:18:43.249Z,36.60
2023-05-12T04:19:43.213Z,36.63
2023-05-12T04:20:43.206Z,36.65
2023-05-12T04:21:43.217Z,36.62
2023-05-12T04:22:43.201Z,36.60
2023-05-12T04:23:43.205Z,36.59
2023-05-12T04:24:43.216Z,36.60
2023-05-12T04:25:43.223Z,36.64
2023-05-12T04:26:43.212Z,36.59
2023-05-12T04:27:43.206Z,36.58
2023-05-12T04:28:43.213Z,36.58
2023-05-12T04:29:43.203Z,36.58
2023-05-12T04:30:43.198Z,36.56
2023-05-12T04:31:43.238Z,36.59
2023-05-12T04:32:43.290Z,36.57
2023-05-12T04:33:43.195Z,36.59
2023-05-12T04:34:43.255Z,36.55
2023-05-12T04:35:43.204Z,36.58
2023-05-12T04:36:43.236Z,36.57
2023-05-12T04:37:43.204Z,36.57
2023-05-12T04:38:43.210Z,36.60
2023-05-12T04:39:43.220Z,36.57
2023-05-12T04:40:43.209Z,36.59
2023-05-12T04:41:43.198Z,36.55
2023-05-12T04:42:43.202Z,36.54
2023-05-12T04:44:43.206Z,36.57
2023-05-12T04:45:43.260Z,36.53
2023-05-12T04:46:43.190Z,36.55
2023-05-12T04:47:43.202Z,36.53
2023-05-12T04:48:43.186Z,36.55
2023-05-12T04:49:43.178Z,36.55
2023-05-12T04:50:43.162Z,36.55
2023-05-12T04:51:43.143Z,36.56
2023-05-12T04:52:43.168Z,36.51
2023-05-12T04:53:43.130Z,36.53
2023-05-12T04:54:43.117Z,36.51
2023-05-12T04:55:43.123Z,36.53
2023-05-12T04:56:43.128Z,36.47
2023-05-12T04:57:43.128Z,36.49
2023-05-12T04:58:43.123Z,36.53
2023-05-12T04:59:43.095Z,36.51
2023-05-12T05:00:43.091Z,36.49
2023-05-12T05:01:43.119Z,36.50
2023-05-12T05:02:43.201Z,36.50
2023-05-12T05:03:43.161Z,36.49
2023-05-12T05:04:43.065Z,36.50
2023-05-12T05:05:43.052Z,36.48
2023-05-12T05:06:43.041Z,36.47
2023-05-12T05:07:43.040Z,36.45
2023-05-12T05:08:43.016Z,36.52
2023-05-12T05:09:43.041Z,36.48
2023-05-12T05:10:43.003Z,36.44
2023-05-12T05:11:43.017Z,36.40
2023-05-12T05:12:43.005Z,36.41
2023-05-12T05:13:43.010Z,36.43
2023-05-12T05:14:43.006Z,36.43
2023-05-12T05:15:43.068Z,36.41
2023-05-12T05:16:42.982Z,36.43
2023-05-12T05:17:43.015Z,36.42
2023-05-12T05:18:42.979Z,36.36
2023-05-12T05:19:55.122Z,36.33
2023-05-12T05:20:45.616Z,36.38
2023-05-12T05:21:43.940Z,36.34
2023-05-12T05:22:42.923Z,36.33
2023-05-12T05:23:42.974Z,36.30
2023-05-12T05:24:42.935Z,36.30
2023-05-12T05:25:42.906Z,36.39
2023-05-12T05:26:42.895Z,36.32
2023-05-12T05:27:42.930Z,36.34
2023-05-12T05:28:42.940Z,36.34
2023-05-12T05:29:42.976Z,36.33
2023-05-12T05:30:42.870Z,36.38
2023-05-12T05:31:42.985Z,36.33
2023-05-12T05:32:43.136Z,34.91
2023-05-12T05:33:42.870Z,34.73
2023-05-12T05:34:42.912Z,34.75
2023-05-12T05:35:42.861Z,34.32
2023-05-12T05:36:42.861Z,34.50
2023-05-12T05:37:42.859Z,34.59
2023-05-12T05:38:42.819Z,34.34
2023-05-12T05:39:42.864Z,34.42
2023-05-12T05:40:52.955Z,34.44
2023-05-12T05:41:43.822Z,34.62
2023-05-12T05:42:42.799Z,34.59
2023-05-12T05:43:42.815Z,34.45
2023-05-12T05:44:42.809Z,34.62
2023-05-12T05:45:42.779Z,34.96
2023-05-12T05:46:42.877Z,35.19
2023-05-12T05:47:42.850Z,35.32
2023-05-12T05:48:42.758Z,35.17
2023-05-12T05:49:42.766Z,35.24
2023-05-12T05:50:42.738Z,35.37
2023-05-12T05:51:42.762Z,35.22
2023-05-12T05:52:42.737Z,35.24
2023-05-12T05:53:42.735Z,35.30
2023-05-12T05:54:42.816Z,35.31
2023-05-12T05:55:42.853Z,35.31
2023-05-12T05:56:42.913Z,35.32
2023-05-12T05:57:42.978Z,35.31
2023-05-12T05:58:43.032Z,35.28
2023-05-12T05:59:43.123Z,35.25
2023-05-12T06:00:43.130Z,35.22
2023-05-12T06:01:43.235Z,35.25
2023-05-12T06:02:43.379Z,35.22
2023-05-12T06:03:43.434Z,35.26
2023-05-12T06:04:43.320Z,35.26
2023-05-12T06:05:43.419Z,35.27
2023-05-12T06:06:43.387Z,35.24
2023-05-12T06:07:43.410Z,35.23
2023-05-12T06:08:43.441Z,35.24
2023-05-12T06:09:43.493Z,35.18
2023-05-12T06:10:43.505Z,35.13
2023-05-12T06:11:43.547Z,35.12
2023-05-12T06:12:43.630Z,35.13
2023-05-12T06:13:43.612Z,35.09
2023-05-12T06:14:43.698Z,35.08
2023-05-12T06:15:43.733Z,35.04
2023-05-12T06:16:43.841Z,35.08
2023-05-12T06:17:43.908Z,35.10
2023-05-12T06:18:43.947Z,35.06
2023-05-12T06:19:43.908Z,35.10
2023-05-12T06:20:43.952Z,35.10
2023-05-12T06:21:44.013Z,35.06
2023-05-12T06:22:44.041Z,35.07
2023-05-12T06:23:44.075Z,35.00
2023-05-12T06:24:44.116Z,35.04
2023-05-12T06:25:44.136Z,35.02
2023-05-12T06:26:44.211Z,34.98
2023-05-12T06:27:44.228Z,34.98
2023-05-12T06:28:44.250Z,34.96
2023-05-12T06:29:44.282Z,34.95
2023-05-12T06:30:44.354Z,34.95
2023-05-12T06:31:44.333Z,34.97
2023-05-12T06:32:44.398Z,34.91
2023-05-12T06:33:44.400Z,34.88
2023-05-12T06:34:44.397Z,34.82
2023-05-12T06:35:44.457Z,34.92
2023-05-12T06:36:44.425Z,34.86
2023-05-12T06:37:44.445Z,34.86
2023-05-12T06:38:44.465Z,34.92
2023-05-12T06:39:44.544Z,35.01
2023-05-12T06:40:44.554Z,35.01
2023-05-12T06:41:45.122Z,35.03
2023-05-12T06:42:44.661Z,35.04
2023-05-12T06:43:44.624Z,35.01
2023-05-12T06:44:44.629Z,34.93
2023-05-12T06:45:44.673Z,34.88
2023-05-12T06:46:44.680Z,34.79
2023-05-12T06:47:44.709Z,34.77
2023-05-12T06:48:44.669Z,34.70
2023-05-12T06:49:44.702Z,34.75
2023-05-12T06:50:44.732Z,34.72
2023-05-12T06:51:44.769Z,34.68
2023-05-12T06:52:45.885Z,34.71
2023-05-12T06:53:44.898Z,34.62
2023-05-12T06:54:44.917Z,34.69
2023-05-12T06:55:45.016Z,34.60
2023-05-12T06:56:45.131Z,34.61
2023-05-12T06:57:45.035Z,34.59
2023-05-12T06:58:45.055Z,34.54
2023-05-12T06:59:45.186Z,34.49
2023-05-12T07:00:45.170Z,34.54
2023-05-12T07:01:45.284Z,34.51
2023-05-12T07:02:45.348Z,34.50
2023-05-12T07:03:45.428Z,34.48
2023-05-12T07:04:45.487Z,34.50
2023-05-12T07:05:45.483Z,34.46
2023-05-12T07:06:45.497Z,34.47
2023-05-12T07:07:45.559Z,34.40
2023-05-12T07:08:45.613Z,34.36
2023-05-12T07:09:45.720Z,34.37
2023-05-12T07:10:45.739Z,34.40
2023-05-12T07:11:45.812Z,34.34
2023-05-12T07:12:45.919Z,34.35
2023-05-12T07:13:45.901Z,34.34
2023-05-12T07:14:45.932Z,34.31
2023-05-12T07:15:46.019Z,34.30
2023-05-12T07:16:46.035Z,34.30
2023-05-12T07:17:46.146Z,34.21
2023-05-12T07:18:46.238Z,34.21
2023-05-12T07:19:46.176Z,34.22
2023-05-12T07:20:46.258Z,34.23
2023-05-12T07:21:46.270Z,34.18
2023-05-12T07:22:46.293Z,34.14
2023-05-12T07:23:46.314Z,34.12
2023-05-12T07:24:46.361Z,34.12
2023-05-12T07:25:46.420Z,34.08
2023-05-12T11:17:42.292Z,44.47
2023-05-12T11:18:42.281Z,43.42
2023-05-12T11:19:42.176Z,42.62
2023-05-12T11:20:42.132Z,41.97
2023-05-12T11:21:42.140Z,41.47
2023-05-12T11:22:42.137Z,41.00
2023-05-12T11:23:42.097Z,40.58
2023-05-12T11:24:42.092Z,40.25
2023-05-12T11:25:44.153Z,40.00
2023-05-12T11:26:42.105Z,39.75
2023-05-12T11:27:42.065Z,39.56
2023-05-12T11:28:42.115Z,39.37
2023-05-12T11:29:42.084Z,39.18
2023-05-12T11:30:42.114Z,39.01
2023-05-12T11:31:42.162Z,38.88
2023-05-12T11:32:42.168Z,38.74
2023-05-12T11:33:42.190Z,38.62
2023-05-12T11:34:42.186Z,38.45
2023-05-12T11:35:42.166Z,38.44
2023-05-12T11:36:42.220Z,38.37
2023-05-12T11:37:42.158Z,38.24
2023-05-12T11:38:42.151Z,38.23
2023-05-12T11:39:42.176Z,38.18
2023-05-12T11:40:42.176Z,38.12
2023-05-12T11:41:42.211Z,38.04
2023-05-12T11:42:42.240Z,38.01
2023-05-12T11:43:42.283Z,37.92
2023-05-12T11:44:42.316Z,37.87
2023-05-12T11:45:42.416Z,37.83
2023-05-12T11:46:42.401Z,37.79
2023-05-12T11:47:42.432Z,37.83
2023-05-12T11:48:42.454Z,37.76
2023-05-12T11:49:42.504Z,37.70
2023-05-12T11:50:42.543Z,37.69
2023-05-12T11:51:42.560Z,37.64
2023-05-12T11:52:42.587Z,37.61
2023-05-12T11:53:42.643Z,37.54
2023-05-12T11:54:42.653Z,37.57
2023-05-12T11:55:42.678Z,37.54
2023-05-12T11:56:42.709Z,37.51
2023-05-12T11:57:42.715Z,37.51
2023-05-12T11:58:42.741Z,37.50
2023-05-12T11:59:42.762Z,37.47
2023-05-12T12:00:42.818Z,37.42
2023-05-12T12:01:42.847Z,37.38
2023-05-12T12:02:42.910Z,37.42
2023-05-12T12:03:43.001Z,37.36
2023-05-12T12:04:43.271Z,37.38
2023-05-12T12:05:43.025Z,37.37
2023-05-12T12:06:43.093Z,37.36
2023-05-12T12:07:43.119Z,37.30
2023-05-12T12:08:43.155Z,37.30
2023-05-12T12:09:43.182Z,37.32
2023-05-12T12:10:43.224Z,37.32
2023-05-12T12:11:43.288Z,37.37
2023-05-12T12:12:43.331Z,37.29
2023-05-12T12:13:43.331Z,37.27
2023-05-12T12:14:43.774Z,37.26
2023-05-12T12:15:43.414Z,37.20
2023-05-12T12:16:43.424Z,37.16
2023-05-12T12:17:43.468Z,37.22
2023-05-12T12:18:43.495Z,37.21
2023-05-12T12:19:43.475Z,37.25
2023-05-12T12:20:43.479Z,37.21
2023-05-12T12:21:43.557Z,37.18
2023-05-12T12:22:43.546Z,37.21
2023-05-12T12:23:50.825Z,37.20
2023-05-12T12:24:44.594Z,37.16
2023-05-12T12:25:43.583Z,37.11
2023-05-12T12:26:43.567Z,37.16
2023-05-12T12:27:43.558Z,37.14
2023-05-12T12:28:43.550Z,37.13
2023-05-12T12:29:43.534Z,37.10
2023-05-12T12:30:43.538Z,37.08
2023-05-12T12:31:43.612Z,37.06
2023-05-12T12:32:43.547Z,37.04
2023-05-12T12:33:43.551Z,37.05
2023-05-12T12:34:43.559Z,37.06
2023-05-12T12:35:43.584Z,37.05
2023-05-12T12:36:43.593Z,37.06
2023-05-12T12:37:43.622Z,37.00
2023-05-12T12:38:43.665Z,37.01
2023-05-12T12:39:43.700Z,37.03
2023-05-12T12:40:43.685Z,37.01
2023-05-12T12:41:43.714Z,37.03
2023-05-12T12:42:43.749Z,37.00
2023-05-12T12:43:43.778Z,37.02
2023-05-12T12:44:43.850Z,36.94
2023-05-12T12:45:43.804Z,37.01
2023-05-12T12:46:43.924Z,37.01
2023-05-12T12:47:43.877Z,37.05
2023-05-12T12:48:43.868Z,36.98
2023-05-12T12:49:43.945Z,37.03
2023-05-12T12:50:43.957Z,37.02
2023-05-12T12:51:46.668Z,37.03
2023-05-12T12:52:43.934Z,37.07
2023-05-12T12:53:43.959Z,37.01
2023-05-12T12:54:43.957Z,37.03
2023-05-12T12:55:43.908Z,36.99
2023-05-12T12:56:43.907Z,37.03
2023-05-12T12:57:43.898Z,37.07
2023-05-12T12:58:43.888Z,37.07
2023-05-12T12:59:43.917Z,37.04
2023-05-12T13:00:43.898Z,37.03
2023-05-12T13:01:43.998Z,37.05
2023-05-12T13:02:43.957Z,36.99
2023-05-12T13:03:43.841Z,36.97
2023-05-12T13:04:43.830Z,37.01
2023-05-12T13:05:43.832Z,36.99
2023-05-12T13:06:43.831Z,36.99
2023-05-12T13:07:43.808Z,36.90
2023-05-12T13:08:43.837Z,36.89
2023-05-12T13:09:43.844Z,36.94
2023-05-12T13:10:43.806Z,36.87
2023-05-12T13:11:43.782Z,36.88
2023-05-12T13:12:43.775Z,36.89
2023-05-12T13:13:43.774Z,36.93
2023-05-12T13:14:43.796Z,36.84
2023-05-12T13:15:43.748Z,36.87
2023-05-12T13:16:43.785Z,36.85
2023-05-12T13:17:43.779Z,36.81
2023-05-12T13:18:43.846Z,36.80
2023-05-12T13:19:43.785Z,36.76
2023-05-12T13:20:43.714Z,36.78
2023-05-12T13:21:43.737Z,36.79
2023-05-12T13:22:43.726Z,36.76
2023-05-12T13:23:43.708Z,36.75
2023-05-12T13:24:43.733Z,36.73
2023-05-12T13:25:43.702Z,36.76
2023-05-12T13:26:43.681Z,36.74
2023-05-12T13:27:43.668Z,36.76
2023-05-12T13:28:43.651Z,36.73
2023-05-12T13:29:43.697Z,36.78
2023-05-12T13:30:43.665Z,36.76
2023-05-12T13:31:43.632Z,36.74
2023-05-12T13:32:43.644Z,36.73
2023-05-12T13:33:43.634Z,36.74
2023-05-12T13:34:43.612Z,36.74
2023-05-12T13:35:43.608Z,36.78
2023-05-12T13:36:43.618Z,36.75
2023-05-12T13:37:43.628Z,36.73
2023-05-12T13:38:43.593Z,36.74
2023-05-12T13:39:43.574Z,36.78
2023-05-12T13:40:43.579Z,36.74
2023-05-12T13:41:43.620Z,36.78
2023-05-12T13:42:43.555Z,36.78
2023-05-12T13:43:43.545Z,36.76
2023-05-12T13:44:43.548Z,36.74
2023-05-12T13:45:43.539Z,36.74
2023-05-12T13:46:43.622Z,36.72
2023-05-12T13:47:43.541Z,36.70
2023-05-12T13:48:44.386Z,36.69
2023-05-12T13:49:43.518Z,36.72
2023-05-12T13:50:43.531Z,36.77
2023-05-12T13:51:43.500Z,36.75
2023-05-12T13:52:43.490Z,36.76
2023-05-12T13:53:43.488Z,36.72
2023-05-12T13:54:43.472Z,36.74
2023-05-12T13:55:43.459Z,36.77
2023-05-12T13:56:43.455Z,36.72
2023-05-12T13:57:43.597Z,36.72
2023-05-12T13:58:43.479Z,36.71
2023-05-12T13:59:43.453Z,36.77
2023-05-12T14:00:43.477Z,36.74
2023-05-12T14:01:43.540Z,36.71
2023-05-12T14:02:43.554Z,36.72
2023-05-12T14:03:43.569Z,36.72
2023-05-12T14:04:43.598Z,36.64
2023-05-12T14:05:43.646Z,36.67
2023-05-12T14:06:43.648Z,36.69
2023-05-12T14:07:43.676Z,36.67
2023-05-12T14:08:43.730Z,36.67
2023-05-12T14:09:43.753Z,36.70
2023-05-12T14:10:43.790Z,36.69
2023-05-12T14:11:43.819Z,36.69
2023-05-12T14:12:43.846Z,36.69
2023-05-12T14:13:43.869Z,36.68
2023-05-12T14:14:43.910Z,36.69
2023-05-12T14:15:49.336Z,36.64
2023-05-12T14:16:44.995Z,36.68
2023-05-12T14:17:44.028Z,36.69
2023-05-12T14:18:44.095Z,36.71
2023-05-12T14:19:43.905Z,36.71
2023-05-12T14:20:43.896Z,36.67
2023-05-12T14:21:43.906Z,36.69
2023-05-12T14:22:43.889Z,36.65
2023-05-12T14:23:43.885Z,36.65
2023-05-12T14:24:43.868Z,36.63
2023-05-12T14:25:43.879Z,36.63
2023-05-12T14:26:43.867Z,36.64
2023-05-12T14:27:43.846Z,36.60
2023-05-12T14:28:43.894Z,36.62
2023-05-12T14:29:43.881Z,36.64
2023-05-12T14:30:43.928Z,36.61
2023-05-12T14:31:43.906Z,36.58
2023-05-12T14:32:43.910Z,36.55
2023-05-12T14:33:43.918Z,36.59
2023-05-12T14:34:43.949Z,36.59
2023-05-12T14:35:52.832Z,36.62
2023-05-12T14:36:44.954Z,36.58
2023-05-12T14:37:43.927Z,36.62
2023-05-12T14:38:43.925Z,36.65
2023-05-12T14:39:43.952Z,36.64
2023-05-12T14:40:43.916Z,36.64
2023-05-12T14:41:43.901Z,36.65
2023-05-12T14:42:43.896Z,36.55
2023-05-12T14:43:43.897Z,36.52
2023-05-12T14:44:43.879Z,36.58
2023-05-12T14:45:43.895Z,36.57
2023-05-12T14:46:43.892Z,36.55
2023-05-12T14:47:43.945Z,36.57
2023-05-12T14:48:43.870Z,36.54
2023-05-12T14:49:45.590Z,36.55
2023-05-12T14:50:43.853Z,36.54
2023-05-12T14:51:43.848Z,36.54
2023-05-12T14:52:43.850Z,36.54
2023-05-12T14:53:43.833Z,36.54
2023-05-12T14:54:43.852Z,36.51
2023-05-12T14:55:43.854Z,36.50
2023-05-12T14:56:43.868Z,36.52
2023-05-12T14:57:43.869Z,36.53
2023-05-12T14:58:43.896Z,36.53
2023-05-12T14:59:43.935Z,36.50
2023-05-12T15:00:43.954Z,36.50
2023-05-12T15:01:44.103Z,36.54
2023-05-12T15:02:44.054Z,36.55
2023-05-12T15:03:43.996Z,36.49
2023-05-12T15:04:43.981Z,36.50
2023-05-12T15:06:44.029Z,36.48
2023-05-12T15:07:44.034Z,36.52
2023-05-12T15:08:43.992Z,36.46
2023-05-12T15:09:43.980Z,36.55
2023-05-12T15:10:43.987Z,36.49
2023-05-12T15:11:43.969Z,36.48
2023-05-12T15:12:43.962Z,36.48
2023-05-12T15:13:43.957Z,36.49
2023-05-12T15:14:44.101Z,36.52
2023-05-12T15:15:43.956Z,36.50
2023-05-12T15:16:43.983Z,36.50
2023-05-12T15:17:43.964Z,36.49
2023-05-12T15:18:44.023Z,36.50
2023-05-12T15:19:43.919Z,36.46
2023-05-12T15:20:43.907Z,36.50
2023-05-12T15:21:43.907Z,36.49
2023-05-12T15:22:43.899Z,36.45
2023-05-12T15:23:43.920Z,36.48
2023-05-12T15:24:43.882Z,36.49
2023-05-12T15:25:43.892Z,36.51
2023-05-12T15:26:43.871Z,36.47
2023-05-12T15:27:43.868Z,36.49
2023-05-12T15:28:43.935Z,36.52
2023-05-12T15:29:43.915Z,36.46
2023-05-12T15:30:43.896Z,36.49
2023-05-12T15:31:43.986Z,36.48
2023-05-12T15:32:43.962Z,36.48
2023-05-12T15:33:43.908Z,36.48
2023-05-12T15:34:43.894Z,36.50
2023-05-12T15:35:43.803Z,36.48
2023-05-12T15:36:43.855Z,36.48
2023-05-12T15:37:43.795Z,36.49
2023-05-12T15:38:43.801Z,36.51
2023-05-12T15:39:43.770Z,36.48
2023-05-12T15:40:43.940Z,36.46
2023-05-12T15:41:43.826Z,36.49
2023-05-12T15:42:43.751Z,36.47
2023-05-12T15:43:43.734Z,36.48
2023-05-12T15:44:43.740Z,36.48
2023-05-12T15:45:43.753Z,36.45
2023-05-12T15:46:43.778Z,36.43
2023-05-12T15:47:43.745Z,36.47
2023-05-12T15:48:43.709Z,36.48
2023-05-12T15:49:43.710Z,36.49
2023-05-12T15:50:43.685Z,36.47
2023-05-12T15:51:43.688Z,36.44
2023-05-12T15:52:43.672Z,36.47
2023-05-12T15:53:43.677Z,36.47
2023-05-12T15:54:43.658Z,36.52
2023-05-12T15:55:43.662Z,36.48
2023-05-12T15:56:43.648Z,36.47
2023-05-12T15:57:43.653Z,36.52
2023-05-12T15:58:43.624Z,36.46
2023-05-12T15:59:43.624Z,36.50
2023-05-12T16:00:43.633Z,36.43
2023-05-12T16:01:43.659Z,36.46
2023-05-12T16:02:43.702Z,36.51
2023-05-12T16:03:43.697Z,36.49
2023-05-12T16:04:43.569Z,36.46
2023-05-12T16:05:43.565Z,36.50
2023-05-12T16:06:43.563Z,36.54
2023-05-12T16:07:43.565Z,36.55
2023-05-12T16:08:43.556Z,36.51
2023-05-12T16:09:43.549Z,36.52
2023-05-12T16:10:43.536Z,36.49
2023-05-12T16:11:43.523Z,36.50
2023-05-12T16:12:43.510Z,36.52
2023-05-12T16:13:43.515Z,36.51
2023-05-12T16:14:43.497Z,36.50
2023-05-12T16:15:43.548Z,36.55
2023-05-12T16:16:43.549Z,36.57
2023-05-12T16:17:43.625Z,36.54
2023-05-12T16:18:43.545Z,36.55
2023-05-12T16:19:43.465Z,36.56
2023-05-12T16:20:43.487Z,36.58
2023-05-12T16:21:43.453Z,36.54
2023-05-12T16:22:43.446Z,36.56
2023-05-12T16:23:43.432Z,36.59
2023-05-12T16:24:43.444Z,36.59
2023-05-12T16:25:43.422Z,36.57
2023-05-12T16:26:43.441Z,36.57
2023-05-12T16:27:43.399Z,36.57
2023-05-12T16:28:43.397Z,36.55
2023-05-12T16:29:43.389Z,36.59
2023-05-12T16:30:43.389Z,36.58
2023-05-12T16:31:43.384Z,36.58
2023-05-12T16:32:43.394Z,36.59
2023-05-12T16:33:43.357Z,36.60
2023-05-12T16:34:43.367Z,36.58
2023-05-12T16:35:43.344Z,36.62
2023-05-12T16:36:43.338Z,36.63
2023-05-12T16:37:43.337Z,36.62
2023-05-12T16:38:43.329Z,36.59
2023-05-12T16:39:43.345Z,36.63
2023-05-12T16:40:43.324Z,36.64
2023-05-12T16:41:43.309Z,36.62
2023-05-12T16:42:43.318Z,36.60
2023-05-12T16:43:43.299Z,36.60
2023-05-12T16:44:43.294Z,36.64
2023-05-12T16:45:43.386Z,36.60